Home   Weather   Germany   Bonn   Past weeks
Flag for Germany

Past Weather in Bonn, North Rhine-Westphalia, Germany — Yesterday and Last 2 Weeks

Currently: 79 °F. Passing clouds. (Weather station: Koeln / Bonn, Germany). See more current weather

Past Weather in Bonn — Graph

°F

Bonn Temperature Yesterday

Maximum temperature yesterday: 79 °F (at 12:50 pm)
Minimum temperature yesterday: 54 °F (at 4:50 am)
Average temperature yesterday: 67 °F

High & Low Weather Summary for the Past Weeks

 TemperatureHumidityPressure
High81 °F (Jul 18, 4:20 pm)100% (Jul 8, 10:20 pm)30.27 "Hg (Jul 8, 10:20 pm)
Low50 °F (Jul 20, 5:50 am)39% (Jul 22, 12:50 pm)29.74 "Hg (Jul 14, 7:50 pm)
Average66 °F79%30.06 "Hg
* Reported Jul 8 6:20 pm — Jul 23 6:20 pm, Bonn. Weather by CustomWeather, © 2021

Note: Actual official high and low records may vary slightly from our data, if they occured in-between our weather recording intervals... More about our weather records

Bonn Weather History for the Previous 24 Hours

Scroll right to see more
 ConditionsComfort  
Time TempWeatherWind HumidityBarometerVisibility
6:20 pm
Fri, Jul 23
81 °FSunny.3 mph42%29.95 "Hg10 mi
5:50 pm79 °FSunny.2 mph45%29.95 "Hg10 mi
5:20 pm81 °FSunny.3 mph42%29.95 "Hg10 mi
4:50 pm81 °FSunny.2 mph42%29.98 "Hg10 mi
4:20 pm79 °FPassing clouds.5 mph45%29.98 "HgN/A
3:50 pm79 °FPassing clouds.5 mph48%29.98 "HgN/A
3:20 pm79 °FPassing clouds.6 mph45%29.98 "HgN/A
2:50 pm79 °FPassing clouds.3 mph48%29.98 "HgN/A
2:20 pm77 °FPassing clouds.5 mph54%30.01 "HgN/A
1:50 pm77 °FPassing clouds.3 mph54%30.01 "HgN/A
1:20 pm75 °FPassing clouds.3 mph54%30.04 "HgN/A
12:50 pm75 °FPassing clouds.3 mph54%30.04 "HgN/A
12:20 pm73 °FPassing clouds.5 mph57%30.04 "HgN/A
11:50 am73 °FPassing clouds.2 mph57%30.04 "HgN/A
11:20 am72 °FPassing clouds.2 mph61%30.07 "HgN/A
10:50 am72 °FSunny.2 mph65%30.07 "Hg10 mi
10:20 am70 °FPassing clouds.3 mph64%30.07 "HgN/A
9:50 am68 °FSunny.2 mph69%30.07 "Hg10 mi
9:20 am66 °FSunny.1 mph73%30.07 "Hg10 mi
7:50 am63 °FSunny.1 mph77%30.07 "Hg10 mi
7:20 am59 °FPassing clouds.1 mph88%30.07 "HgN/A
6:50 am57 °FPassing clouds.1 mph94%30.07 "HgN/A
6:20 am55 °FScattered clouds.2 mph100%30.07 "HgN/A
5:50 am57 °FScattered clouds.2 mph94%30.07 "HgN/A
5:20 am59 °FPassing clouds.2 mph88%30.07 "HgN/A
4:50 am59 °FPassing clouds.2 mph88%30.07 "HgN/A
4:20 am61 °FPassing clouds.3 mph83%30.09 "HgN/A
3:50 am61 °FPassing clouds.2 mph88%30.09 "HgN/A
3:20 am61 °FPassing clouds.1 mph88%30.09 "HgN/A
2:50 am61 °FPassing clouds.3 mph88%30.09 "HgN/A
2:20 am61 °FPassing clouds.3 mph88%30.09 "HgN/A
1:50 am61 °FPassing clouds.3 mph88%30.09 "HgN/A
1:20 am61 °FPassing clouds.2 mph88%30.09 "HgN/A
12:50 am61 °FClear.2 mph88%30.09 "Hg10 mi
12:20 am63 °FClear.1 mph83%30.09 "Hg10 mi
11:50 pm
Thu, Jul 22
63 °FClear.1 mph83%30.09 "Hg10 mi
11:20 pm64 °FClear.3 mph78%30.09 "Hg10 mi
10:50 pm64 °FClear.5 mph78%30.09 "Hg10 mi
10:20 pm64 °FClear.5 mph83%30.09 "Hg10 mi
9:50 pm68 °FClear.5 mph73%30.09 "Hg10 mi
9:20 pm70 °FPassing clouds.6 mph69%30.09 "HgN/A
8:50 pm72 °FPassing clouds.6 mph65%30.09 "HgN/A
8:20 pm73 °FPassing clouds.5 mph61%30.09 "HgN/A
7:50 pm75 °FPassing clouds.5 mph57%30.09 "HgN/A
7:20 pm75 °FPassing clouds.5 mph57%30.09 "HgN/A
Weather by CustomWeather, © 2021

See weather overview